Time;durP1;ratioP1;P1;durP2;ratioP2;P2;SDS_P1;SDS_P2;PMS_P1;PMS_P2;Temp;Humidity;BMP_temperature;BMP_pressure;BME280_temperature;BME280_humidity;BME280_pressure;Samples;Min_cycle;Max_cycle;Signal;HPM_P1;HPM_P2
2022/04/11 00:01:22;;;;;;;;;5.50;4.75;;;;;11.07;44.22;100909.84;5035642;28;45418;-51
2022/04/11 00:03:48;;;;;;;;;5.00;4.00;;;;;11.08;44.72;100911.53;5019395;28;45868;-50
2022/04/11 00:06:13;;;;;;;;;7.25;7.25;;;;;10.99;43.82;100888.94;5036741;28;45376;-49
2022/04/11 00:08:39;;;;;;;;;5.00;5.00;;;;;11.08;44.68;100912.41;5036873;28;45325;-47
2022/04/11 00:11:05;;;;;;;;;4.00;4.00;;;;;10.84;44.30;100873.50;5036925;28;45835;-50
2022/04/11 00:13:30;;;;;;;;;4.25;4.25;;;;;11.06;44.45;100903.50;5037075;28;45612;-50
2022/04/11 00:15:56;;;;;;;;;4.00;4.00;;;;;11.06;44.59;100910.91;5036466;28;45551;-50
2022/04/11 00:18:21;;;;;;;;;5.00;5.00;;;;;11.03;44.31;100905.81;5036861;28;45256;-49
2022/04/11 00:20:47;;;;;;;;;3.25;3.25;;;;;10.91;43.78;100892.75;5036792;28;45377;-47
2022/04/11 00:23:13;;;;;;;;;6.50;5.25;;;;;10.99;44.11;100905.41;5037104;28;45585;-48
2022/04/11 00:25:39;;;;;;;;;7.40;4.40;;;;;10.99;44.75;100897.16;5035160;28;48177;-46
2022/04/11 00:28:05;;;;;;;;;4.00;4.00;;;;;10.89;44.43;100885.78;5021451;28;45725;-49
2022/04/11 00:30:30;;;;;;;;;4.00;4.00;;;;;10.96;44.76;100892.09;5028000;28;45466;-51
2022/04/11 00:32:56;;;;;;;;;3.00;3.00;;;;;10.95;44.38;100883.00;5056722;28;45577;-49
2022/04/11 00:35:21;;;;;;;;;4.25;3.75;;;;;10.89;44.58;100880.28;5056564;28;46202;-48
2022/04/11 00:37:47;;;;;;;;;4.50;4.00;;;;;10.94;45.22;100867.59;5055714;28;45362;-52
2022/04/11 00:40:13;;;;;;;;;4.50;4.50;;;;;10.65;44.70;100822.19;5056732;28;45389;-47
2022/04/11 00:42:38;;;;;;;;;3.80;3.60;;;;;10.88;44.36;100851.13;5054836;28;45406;-50
2022/04/11 00:45:04;;;;;;;;;3.00;3.00;;;;;10.86;44.57;100851.34;5038600;28;45401;-51
2022/04/11 00:47:30;;;;;;;;;4.00;2.60;;;;;10.81;44.83;100843.75;5056337;28;45394;-49
2022/04/11 00:49:58;;;;;;;;;5.25;5.25;;;;;10.80;45.03;100846.69;5056532;28;45402;-49
2022/04/11 00:52:24;;;;;;;;;5.00;5.00;;;;;10.78;44.94;100855.13;5038306;28;45398;-51
2022/04/11 00:54:50;;;;;;;;;5.25;5.25;;;;;10.78;44.37;100854.31;5071843;28;45943;-52
2022/04/11 00:57:15;;;;;;;;;3.50;3.25;;;;;10.71;44.53;100833.19;5071393;28;45804;-48
2022/04/11 00:59:41;;;;;;;;;7.00;4.50;;;;;10.46;44.91;100785.47;5071998;28;45448;-50
2022/04/11 01:02:07;;;;;;;;;8.00;5.20;;;;;10.73;44.85;100829.38;5056584;28;45534;-52
2022/04/11 01:04:34;;;;;;;;;4.00;4.00;;;;;10.50;45.30;100786.69;5055844;28;45479;-47
2022/04/11 01:06:59;;;;;;;;;5.40;5.40;;;;;10.74;45.45;100822.81;5071511;28;45457;-51
2022/04/11 01:09:25;;;;;;;;;3.00;3.00;;;;;10.71;45.63;100819.47;5038257;28;45327;-49
2022/04/11 01:11:51;;;;;;;;;3.00;3.00;;;;;10.71;44.91;100807.63;5056227;28;45266;-48
2022/04/11 01:14:17;;;;;;;;;6.40;6.40;;;;;10.69;44.77;100809.75;5053448;28;46056;-50
2022/04/11 01:16:52;;;;;;;;;3.75;3.50;;;;;10.65;44.79;100803.81;5053644;28;45526;-50
2022/04/11 01:19:18;;;;;;;;;3.60;3.40;;;;;10.63;44.72;100802.34;5055928;28;45294;-49
2022/04/11 01:21:44;;;;;;;;;7.00;3.40;;;;;10.61;45.28;100796.22;5055752;28;45500;-49
2022/04/11 01:24:10;;;;;;;;;3.00;3.00;;;;;10.60;44.89;100798.13;5055524;28;45456;-49
2022/04/11 01:26:35;;;;;;;;;3.00;3.00;;;;;10.54;45.45;100783.34;5055852;28;45295;-49
2022/04/11 01:29:02;;;;;;;;;3.00;3.00;;;;;10.52;45.84;100782.69;5054358;28;45537;-49
2022/04/11 01:31:28;;;;;;;;;6.20;3.20;;;;;10.55;45.70;100778.69;4964772;27;45449;-49
2022/04/11 01:33:53;;;;;;;;;4.50;3.50;;;;;10.49;45.54;100772.16;5054152;28;45466;-50
2022/04/11 01:36:19;;;;;;;;;3.00;3.00;;;;;10.28;45.45;100743.84;5055444;28;45466;-50
2022/04/11 01:38:44;;;;;;;;;6.00;2.00;;;;;10.36;45.12;100752.91;5055752;28;45338;-48
2022/04/11 01:41:10;;;;;;;;;2.25;2.25;;;;;10.53;45.22;100769.84;5055783;28;45316;-49
2022/04/11 01:43:35;;;;;;;;;3.50;3.50;;;;;10.54;45.96;100763.28;5054069;28;46482;-48
2022/04/11 01:46:01;;;;;;;;;3.25;3.00;;;;;10.46;45.48;100750.59;5054647;28;45342;-48
2022/04/11 01:48:26;;;;;;;;;5.25;3.50;;;;;10.46;44.47;100760.75;5055421;28;45362;-49
2022/04/11 01:50:52;;;;;;;;;3.75;3.75;;;;;10.44;45.05;100763.72;5054752;28;45605;-48
2022/04/11 01:53:19;;;;;;;;;3.00;1.00;;;;;10.46;44.99;100755.28;5055287;28;45415;-47
2022/04/11 01:55:44;;;;;;;;;3.20;3.20;;;;;10.44;45.12;100756.34;5055606;28;45351;-52
2022/04/11 01:58:10;;;;;;;;;4.00;4.00;;;;;10.30;45.28;100746.38;5070570;28;45431;-47
2022/04/11 02:00:36;;;;;;;;;7.00;4.00;;;;;10.35;44.62;100740.25;5055277;28;45483;-48
2022/04/11 02:03:04;;;;;;;;;2.75;2.75;;;;;10.35;45.26;100749.31;5037036;28;45370;-51
2022/04/11 02:05:30;;;;;;;;;3.20;3.20;;;;;10.34;44.40;100744.06;5036772;28;45529;-48
2022/04/11 02:07:56;;;;;;;;;3.50;3.25;;;;;10.34;44.88;100744.06;5037069;28;45360;-48
2022/04/11 02:10:22;;;;;;;;;2.00;2.00;;;;;10.33;45.59;100745.09;5055470;28;45330;-49
2022/04/11 02:12:47;;;;;;;;;2.75;2.75;;;;;10.29;44.60;100729.06;5055137;28;45461;-48
2022/04/11 02:15:13;;;;;;;;;2.75;2.75;;;;;10.32;43.78;100738.78;5037139;28;45517;-48
2022/04/11 02:17:38;;;;;;;;;4.50;4.50;;;;;10.29;44.88;100741.91;5054911;28;45436;-49
2022/04/11 02:20:05;;;;;;;;;2.75;2.75;;;;;10.25;44.87;100733.28;5055469;28;45501;-48
2022/04/11 02:22:51;;;;;;;;;4.60;3.40;;;;;10.19;44.05;100727.78;5054801;28;45365;-47
2022/04/11 02:25:18;;;;;;;;;3.00;3.00;;;;;10.17;45.15;100725.25;5036817;28;47068;-51
2022/04/11 02:27:44;;;;;;;;;3.00;3.00;;;;;10.17;44.30;100715.13;5054972;28;45402;-49
2022/04/11 02:30:10;;;;;;;;;3.00;3.00;;;;;10.15;43.97;100717.22;5036918;28;45425;-48
2022/04/11 02:32:36;;;;;;;;;1.80;1.80;;;;;10.11;44.09;100709.63;5045178;28;46582;-47
2022/04/11 02:35:01;;;;;;;;;2.00;2.00;;;;;10.14;44.56;100723.78;5042246;28;45375;-47
2022/04/11 02:37:27;;;;;;;;;2.25;2.25;;;;;10.12;44.08;100719.53;5054712;28;45277;-48
2022/04/11 02:39:52;;;;;;;;;4.00;3.75;;;;;10.06;44.88;100707.53;5055522;28;45320;-51
2022/04/11 02:42:24;;;;;;;;;2.00;2.00;;;;;10.09;44.40;100707.09;5054343;28;45571;-50
2022/04/11 02:44:50;;;;;;;;;6.20;3.00;;;;;10.04;43.98;100698.69;5054753;28;45383;-48
2022/04/11 02:47:15;;;;;;;;;3.25;2.25;;;;;10.07;44.04;100711.94;5054960;28;45285;-47
2022/04/11 02:49:41;;;;;;;;;2.00;2.00;;;;;9.69;44.12;100647.59;5054744;28;45639;-47
2022/04/11 02:52:07;;;;;;;;;3.00;3.00;;;;;10.05;43.92;100703.09;5054464;28;45472;-48
2022/04/11 02:54:32;;;;;;;;;1.25;1.25;;;;;10.01;44.06;100697.19;5054986;28;45294;-49
2022/04/11 02:56:58;;;;;;;;;2.75;2.75;;;;;10.00;44.65;100686.44;5070228;28;45184;-47
2022/04/11 02:59:23;;;;;;;;;1.75;1.75;;;;;10.02;43.40;100679.69;5054611;28;45600;-47
2022/04/11 03:01:49;;;;;;;;;4.50;3.00;;;;;9.93;43.82;100661.72;5056111;28;45912;-50
2022/04/11 03:04:16;;;;;;;;;2.00;2.00;;;;;9.98;43.94;100675.66;5057721;28;45727;-49
2022/04/11 03:06:41;;;;;;;;;1.80;1.60;;;;;9.98;44.41;100661.13;5056553;28;45397;-50
2022/04/11 03:09:08;;;;;;;;;2.75;2.75;;;;;9.96;44.36;100665.94;5058177;28;45788;-48
2022/04/11 03:11:34;;;;;;;;;3.00;3.00;;;;;9.92;43.88;100653.75;5058098;28;45793;-49
2022/04/11 03:13:59;;;;;;;;;2.20;2.20;;;;;9.83;44.13;100651.19;5057633;28;45357;-48
2022/04/11 03:16:25;;;;;;;;;4.00;2.00;;;;;9.87;43.35;100654.38;5073783;28;45473;-49
2022/04/11 03:18:50;;;;;;;;;2.00;2.00;;;;;9.87;44.33;100651.63;5058053;28;45431;-51
2022/04/11 03:21:16;;;;;;;;;2.00;2.00;;;;;9.88;43.68;100656.88;5057513;28;46576;-48
2022/04/11 03:23:41;;;;;;;;;1.75;1.75;;;;;9.86;44.21;100653.50;5057491;28;45373;-49
2022/04/11 03:26:07;;;;;;;;;2.25;2.00;;;;;9.84;44.24;100663.84;5073320;28;45746;-49
2022/04/11 03:28:32;;;;;;;;;3.00;3.00;;;;;9.72;44.03;100643.59;5057941;28;45587;-49
2022/04/11 03:30:59;;;;;;;;;3.75;3.75;;;;;9.82;43.87;100654.97;5057379;28;46104;-49
2022/04/11 03:33:25;;;;;;;;;4.00;2.20;;;;;9.83;44.12;100659.41;5073135;28;45441;-48
2022/04/11 03:35:50;;;;;;;;;3.00;3.00;;;;;9.83;43.91;100658.56;5057592;28;45516;-48
2022/04/11 03:38:16;;;;;;;;;3.00;3.00;;;;;9.78;44.18;100667.44;5057530;28;45383;-47
2022/04/11 03:40:41;;;;;;;;;1.75;1.75;;;;;9.74;43.96;100661.53;5057513;28;46841;-49
2022/04/11 03:43:07;;;;;;;;;2.00;2.00;;;;;9.81;44.77;100663.44;5056910;28;45472;-49
2022/04/11 03:45:33;;;;;;;;;1.00;1.00;;;;;9.82;43.86;100649.50;5057583;28;45434;-50
2022/04/11 03:47:58;;;;;;;;;5.00;2.25;;;;;9.81;44.86;100631.38;5057980;28;45338;-49
2022/04/11 03:50:24;;;;;;;;;3.50;2.50;;;;;9.79;44.31;100644.44;5022862;28;46886;-48
2022/04/11 03:52:50;;;;;;;;;2.50;2.00;;;;;9.61;44.80;100613.00;5055706;28;45485;-49
2022/04/11 03:55:15;;;;;;;;;4.00;2.00;;;;;9.75;44.62;100632.19;5057106;28;45370;-49
2022/04/11 03:57:41;;;;;;;;;1.00;1.00;;;;;9.70;44.16;100616.38;5057407;28;45678;-48
2022/04/11 04:00:07;;;;;;;;;3.00;2.00;;;;;9.79;43.49;100627.13;5038975;28;46281;-48
2022/04/11 04:02:33;;;;;;;;;2.40;2.00;;;;;9.75;43.70;100622.09;5057331;28;45339;-48
2022/04/11 04:04:58;;;;;;;;;2.00;2.00;;;;;9.73;44.34;100617.88;5057146;28;45210;-50
2022/04/11 04:07:24;;;;;;;;;3.00;3.00;;;;;9.66;43.51;100603.31;5038968;28;45559;-50
2022/04/11 04:09:49;;;;;;;;;3.00;2.00;;;;;9.69;44.66;100611.97;5056625;28;45379;-49
2022/04/11 04:12:19;;;;;;;;;3.00;3.00;;;;;8.92;43.85;100486.28;5056776;28;45397;-48
2022/04/11 04:14:46;;;;;;;;;3.60;2.80;;;;;9.66;44.85;100603.31;5038506;28;45370;-51
2022/04/11 04:17:11;;;;;;;;;6.20;3.60;;;;;9.42;44.06;100565.34;5057483;28;45301;-48
2022/04/11 04:19:37;;;;;;;;;3.00;1.25;;;;;9.65;43.50;100604.38;5056838;28;46346;-50
2022/04/11 04:22:03;;;;;;;;;3.00;3.00;;;;;9.21;44.02;100537.09;5056072;28;45271;-47
2022/04/11 04:24:28;;;;;;;;;2.80;2.80;;;;;9.60;43.98;100605.84;5056879;28;45371;-50
2022/04/11 04:26:54;;;;;;;;;2.00;2.00;;;;;9.62;44.16;100609.19;5057446;28;45395;-48
2022/04/11 04:29:20;;;;;;;;;3.50;3.50;;;;;9.60;45.17;100604.97;5056621;28;46040;-50
2022/04/11 04:31:47;;;;;;;;;4.00;2.00;;;;;9.62;44.39;100591.94;5055360;28;45489;-47
2022/04/11 04:34:13;;;;;;;;;6.00;3.40;;;;;9.61;44.68;100591.06;5039056;28;45724;-47
2022/04/11 04:36:39;;;;;;;;;4.00;2.80;;;;;9.60;43.99;100589.41;5047244;28;45560;-47
2022/04/11 04:39:05;;;;;;;;;3.25;3.25;;;;;9.59;44.60;100575.91;4951076;27;47832;-48
2022/04/11 04:41:30;;;;;;;;;6.00;6.00;;;;;9.52;43.81;100569.56;5056158;28;45369;-49
2022/04/11 04:43:58;;;;;;;;;3.00;3.00;;;;;9.57;44.43;100581.59;5056968;28;45270;-48
2022/04/11 04:46:24;;;;;;;;;3.00;2.00;;;;;9.55;44.42;100580.94;5039509;28;45962;-47
2022/04/11 04:48:50;;;;;;;;;3.00;3.00;;;;;9.56;44.55;100590.84;5038540;28;48279;-49
2022/04/11 04:51:16;;;;;;;;;3.50;3.50;;;;;9.55;44.65;100594.66;5038404;28;45536;-50
2022/04/11 04:53:41;;;;;;;;;8.00;4.00;;;;;9.57;44.70;100599.94;5056550;28;45505;-49
2022/04/11 04:56:07;;;;;;;;;3.00;3.00;;;;;9.56;44.63;100604.56;5056745;28;45354;-48
2022/04/11 04:58:32;;;;;;;;;4.00;2.75;;;;;9.44;44.59;100601.59;5056215;28;46137;-47
2022/04/11 05:00:58;;;;;;;;;2.00;2.00;;;;;9.48;45.37;100607.50;5054918;28;45384;-48
2022/04/11 05:03:23;;;;;;;;;4.00;2.75;;;;;9.51;44.92;100623.53;5056807;28;45401;-48
2022/04/11 05:05:50;;;;;;;;;5.60;3.80;;;;;9.40;44.42;100604.97;5038347;28;45647;-47
2022/04/11 05:08:16;;;;;;;;;3.00;3.00;;;;;9.52;44.57;100624.38;5056478;28;45476;-48
2022/04/11 05:10:41;;;;;;;;;2.25;2.25;;;;;9.50;44.70;100621.81;5056256;28;45284;-54
2022/04/11 05:13:07;;;;;;;;;3.50;3.50;;;;;9.50;44.89;100619.09;5056356;28;45284;-48
2022/04/11 05:15:32;;;;;;;;;3.00;3.00;;;;;9.24;45.11;100565.97;5056637;28;45190;-49
2022/04/11 05:17:58;;;;;;;;;3.00;3.00;;;;;9.27;44.98;100559.19;5037765;28;45766;-49
2022/04/11 05:20:24;;;;;;;;;7.00;3.50;;;;;9.53;45.28;100610.47;5038378;28;45386;-51
2022/04/11 05:22:49;;;;;;;;;7.00;4.50;;;;;9.54;45.52;100592.16;5056221;28;45324;-49
2022/04/11 05:25:15;;;;;;;;;6.25;2.75;;;;;9.51;44.88;100592.53;5038299;28;45485;-48
2022/04/11 05:27:40;;;;;;;;;4.00;4.00;;;;;9.55;45.37;100597.38;5037784;28;47349;-47
2022/04/11 05:30:06;;;;;;;;;3.00;3.00;;;;;9.42;45.17;100575.47;5055818;28;45291;-49
2022/04/11 05:32:33;;;;;;;;;6.00;6.00;;;;;9.53;44.69;100594.03;5054568;28;45358;-48
2022/04/11 05:34:59;;;;;;;;;4.00;4.00;;;;;9.55;44.85;100589.16;5021714;28;45596;-48
2022/04/11 05:37:25;;;;;;;;;2.00;2.00;;;;;9.41;44.56;100568.28;5055566;28;46520;-51
2022/04/11 05:39:50;;;;;;;;;3.50;3.00;;;;;9.53;44.91;100591.28;5071302;28;45399;-46
2022/04/11 05:42:16;;;;;;;;;6.00;4.50;;;;;9.51;45.16;100582.44;5046882;28;45603;-47
2022/04/11 05:44:41;;;;;;;;;3.25;3.25;;;;;9.52;44.94;100592.34;5068609;28;45342;-48
2022/04/11 05:47:07;;;;;;;;;4.00;4.00;;;;;9.54;44.19;100592.97;5053536;28;45984;-50
2022/04/11 05:49:32;;;;;;;;;3.75;3.00;;;;;9.54;44.91;100579.28;5055534;28;45307;-51
2022/04/11 05:51:58;;;;;;;;;3.50;3.50;;;;;9.56;44.68;100601.00;5055920;28;45281;-48
2022/04/11 05:54:23;;;;;;;;;6.75;4.50;;;;;9.50;44.44;100602.66;5055818;28;45334;-48
2022/04/11 05:56:49;;;;;;;;;4.00;4.00;;;;;9.49;45.28;100603.69;5055726;28;46499;-47
2022/04/11 05:59:14;;;;;;;;;5.50;5.50;;;;;9.57;44.76;100608.16;5070194;28;45383;-50
2022/04/11 06:01:40;;;;;;;;;3.25;3.00;;;;;9.58;45.03;100609.84;5055646;28;45395;-50
2022/04/11 06:04:06;;;;;;;;;2.50;2.00;;;;;9.60;44.54;100604.97;5055720;28;45828;-49
2022/04/11 06:06:31;;;;;;;;;4.00;3.00;;;;;9.59;44.70;100598.66;5055163;28;45722;-48
2022/04/11 06:08:57;;;;;;;;;7.00;4.50;;;;;9.61;44.76;100602.03;5037366;28;45498;-50
2022/04/11 06:11:23;;;;;;;;;3.00;3.00;;;;;9.58;44.90;100597.00;5055481;28;45429;-49
2022/04/11 06:13:48;;;;;;;;;6.75;4.00;;;;;9.60;45.15;100597.63;5071162;28;45396;-49
2022/04/11 06:16:14;;;;;;;;;4.00;4.00;;;;;9.46;45.21;100579.47;5037213;28;45448;-50
2022/04/11 06:18:39;;;;;;;;;4.00;4.00;;;;;9.67;45.58;100610.47;5053534;28;45272;-49
2022/04/11 06:21:05;;;;;;;;;5.75;5.00;;;;;9.71;44.79;100607.09;5055265;28;45369;-46
2022/04/11 06:23:31;;;;;;;;;3.00;3.00;;;;;9.72;45.35;100618.94;5055604;28;45538;-50
2022/04/11 06:25:56;;;;;;;;;8.50;8.50;;;;;9.49;44.52;100581.78;5037158;28;46392;-50
2022/04/11 06:28:22;;;;;;;;;8.60;8.60;;;;;9.72;44.49;100614.28;5055194;28;45391;-50
2022/04/11 06:30:47;;;;;;;;;7.50;6.00;;;;;9.70;45.28;100618.28;5054827;28;45424;-51
2022/04/11 06:33:13;;;;;;;;;10.75;9.00;;;;;9.70;44.89;100602.69;5055401;28;45320;-50
2022/04/11 06:35:38;;;;;;;;;6.00;6.00;;;;;9.73;44.88;100604.16;5036775;28;45783;-49
2022/04/11 06:38:04;;;;;;;;;8.00;4.00;;;;;9.74;44.28;100594.88;5073085;28;45516;-51
2022/04/11 06:40:30;;;;;;;;;6.25;6.00;;;;;9.75;44.78;100591.94;5040805;28;45413;-51
2022/04/11 06:42:55;;;;;;;;;4.50;3.75;;;;;9.78;45.03;100571.50;5058762;28;45997;-50
2022/04/11 06:45:21;;;;;;;;;7.25;6.50;;;;;9.53;43.80;100528.28;5058327;28;45525;-48
2022/04/11 06:47:48;;;;;;;;;5.75;5.75;;;;;9.82;44.00;100575.47;5074115;28;45538;-50
2022/04/11 06:50:14;;;;;;;;;5.40;3.40;;;;;9.55;43.92;100530.81;5058566;28;45366;-48
2022/04/11 06:52:39;;;;;;;;;11.40;4.00;;;;;9.86;44.23;100571.28;5040716;28;45367;-47
2022/04/11 06:55:05;;;;;;;;;5.50;5.50;;;;;9.78;44.47;100555.06;5040351;28;45431;-49
2022/04/11 06:57:31;;;;;;;;;5.50;4.00;;;;;9.73;44.32;100538.38;5058656;28;45280;-53
2022/04/11 06:59:57;;;;;;;;;4.50;3.25;;;;;9.86;45.15;100551.22;5058281;28;45587;-49
2022/04/11 07:02:22;;;;;;;;;8.25;8.00;;;;;9.89;44.39;100557.13;5058605;28;45301;-46
2022/04/11 07:04:48;;;;;;;;;13.50;11.00;;;;;9.84;44.57;100556.94;5040143;28;46195;-50
2022/04/11 07:07:13;;;;;;;;;11.00;9.25;;;;;9.94;44.89;100553.78;5039816;28;46037;-49
2022/04/11 07:09:39;;;;;;;;;7.75;7.75;;;;;9.72;45.01;100521.09;5057282;28;45387;-48
2022/04/11 07:12:05;;;;;;;;;8.75;8.75;;;;;10.02;44.89;100548.06;5058395;28;45473;-52
2022/04/11 07:14:30;;;;;;;;;9.00;9.00;;;;;9.86;44.83;100512.84;5058151;28;45519;-47
2022/04/11 07:16:56;;;;;;;;;18.25;14.50;;;;;10.06;44.74;100543.00;5039755;28;45487;-48
2022/04/11 07:19:21;;;;;;;;;7.00;7.00;;;;;10.07;44.64;100549.31;5058548;28;45480;-48
2022/04/11 07:21:47;;;;;;;;;8.50;8.50;;;;;10.06;44.01;100533.91;5058275;28;45427;-50
2022/04/11 07:24:13;;;;;;;;;6.20;6.20;;;;;10.12;44.85;100533.06;5037696;28;46125;-50
2022/04/11 07:26:40;;;;;;;;;7.40;7.40;;;;;10.05;45.37;100508.41;5020302;28;45438;-48
2022/04/11 07:29:06;;;;;;;;;8.80;7.20;;;;;9.99;44.06;100493.63;5040207;28;45655;-47
2022/04/11 07:31:32;;;;;;;;;9.60;7.60;;;;;10.17;44.07;100522.28;5058188;28;45407;-49
2022/04/11 07:33:58;;;;;;;;;7.00;7.00;;;;;10.20;44.37;100530.09;5056532;28;47475;-50
2022/04/11 07:36:23;;;;;;;;;11.00;10.00;;;;;10.19;44.25;100522.09;5011061;28;46096;-49
2022/04/11 07:38:49;;;;;;;;;11.25;9.50;;;;;10.24;45.03;100528.59;5017148;28;45510;-50
2022/04/11 07:41:14;;;;;;;;;8.25;7.00;;;;;10.20;44.43;100513.66;5039228;28;45625;-54
2022/04/11 07:43:40;;;;;;;;;6.00;6.00;;;;;10.28;44.35;100524.38;5053137;28;46194;-47
2022/04/11 07:46:05;;;;;;;;;11.25;8.00;;;;;10.36;44.40;100530.69;5034638;28;45452;-50
2022/04/11 07:48:32;;;;;;;;;7.50;6.75;;;;;9.82;44.39;100441.16;5051149;28;45398;-51
2022/04/11 07:50:58;;;;;;;;;6.00;5.20;;;;;10.28;44.04;100502.44;5053841;28;45511;-49
2022/04/11 07:53:23;;;;;;;;;6.00;6.00;;;;;10.42;44.21;100522.44;5066990;28;46058;-48
2022/04/11 07:55:49;;;;;;;;;7.00;5.50;;;;;10.30;44.13;100483.03;5020403;28;46118;-46
2022/04/11 07:58:19;;;;;;;;;6.00;6.00;;;;;10.52;44.23;100518.44;5051467;28;45378;-50
2022/04/11 08:00:45;;;;;;;;;8.00;8.00;;;;;10.34;44.60;100478.78;5051816;28;45755;-50
2022/04/11 08:03:10;;;;;;;;;11.00;6.60;;;;;10.68;43.77;100511.59;5050162;28;46518;-51
2022/04/11 08:05:36;;;;;;;;;8.50;7.25;;;;;10.71;43.79;100512.00;5052529;28;45831;-48
2022/04/11 08:08:01;;;;;;;;;8.00;8.00;;;;;10.52;43.74;100474.53;5034351;28;45838;-51
2022/04/11 08:10:27;;;;;;;;;14.25;12.75;;;;;10.84;43.32;100507.50;5034769;28;45785;-53
2022/04/11 08:12:59;;;;;;;;;19.25;18.50;;;;;10.87;44.36;100496.09;5051693;28;46378;-47
2022/04/11 08:15:25;;;;;;;;;11.80;11.80;;;;;10.87;43.80;100493.34;5052961;28;45887;-49
2022/04/11 08:17:51;;;;;;;;;10.00;9.00;;;;;10.88;44.25;100497.75;5035024;28;45587;-51
2022/04/11 08:20:17;;;;;;;;;7.25;6.25;;;;;10.80;44.04;100476.06;5053451;28;45564;-49
2022/04/11 08:22:42;;;;;;;;;11.00;8.00;;;;;10.92;43.95;100499.00;5053019;28;46457;-48
2022/04/11 08:25:10;;;;;;;;;5.50;5.50;;;;;10.92;44.39;100496.25;5031927;28;45554;-52
2022/04/11 08:27:36;;;;;;;;;6.00;6.00;;;;;10.98;43.65;100500.88;5050548;28;45803;-48
2022/04/11 08:30:03;;;;;;;;;8.00;8.00;;;;;11.06;43.57;100504.41;5035039;28;45410;-50
2022/04/11 08:32:40;;;;;;;;;9.00;8.20;;;;;11.12;43.79;100493.38;5034681;28;47105;-51
2022/04/11 08:35:06;;;;;;;;;9.60;9.60;;;;;11.16;43.65;100491.03;5043288;28;45397;-50
2022/04/11 08:37:36;;;;;;;;;10.00;9.00;;;;;11.20;44.15;100489.53;5050375;28;45561;-53
2022/04/11 08:40:04;;;;;;;;;23.20;18.60;;;;;11.33;43.19;100487.75;5053133;28;45308;-50
2022/04/11 08:42:29;;;;;;;;;6.00;5.20;;;;;11.35;42.92;100496.59;5017946;28;47748;-48
2022/04/11 08:44:55;;;;;;;;;5.25;5.00;;;;;11.35;43.15;100489.22;5051425;28;45419;-51
2022/04/11 08:47:20;;;;;;;;;5.00;4.00;;;;;11.41;43.08;100481.16;5068172;28;45444;-49
2022/04/11 08:49:46;;;;;;;;;3.00;3.00;;;;;11.42;43.26;100477.34;5033469;28;45720;-51
2022/04/11 08:52:11;;;;;;;;;3.75;3.00;;;;;11.33;43.21;100436.41;5068196;28;46598;-50
2022/04/11 08:54:37;;;;;;;;;4.00;4.00;;;;;11.63;43.25;100462.34;5052495;28;45695;-49
2022/04/11 08:57:02;;;;;;;;;3.00;3.00;;;;;11.64;43.00;100450.28;5052585;28;45526;-49
2022/04/11 08:59:32;;;;;;;;;6.00;5.00;;;;;11.82;43.03;100457.72;5050673;28;45680;-54
2022/04/11 09:01:57;;;;;;;;;5.00;4.20;;;;;11.36;42.50;100369.13;5050996;28;46187;-50
2022/04/11 09:04:23;;;;;;;;;4.25;3.50;;;;;11.95;42.46;100451.22;5052272;28;45339;-53
2022/04/11 09:06:59;;;;;;;;;4.00;3.75;;;;;12.02;42.79;100453.91;5052241;28;45991;-51
2022/04/11 09:09:38;;;;;;;;;3.00;3.00;;;;;12.12;42.54;100443.22;5052196;28;45675;-52
2022/04/11 09:12:03;;;;;;;;;2.60;2.60;;;;;12.19;42.03;100437.66;5052314;28;45712;-52
2022/04/11 09:14:29;;;;;;;;;7.00;4.75;;;;;12.25;42.01;100442.25;5050828;28;45805;-48
2022/04/11 09:16:55;;;;;;;;;5.00;4.00;;;;;12.32;42.03;100445.75;5033783;28;45487;-51
2022/04/11 09:19:22;;;;;;;;;4.75;4.75;;;;;12.19;41.90;100410.16;5050686;28;45691;-52
2022/04/11 09:21:48;;;;;;;;;4.00;3.00;;;;;12.46;41.97;100440.94;5045353;28;46120;-49
2022/04/11 09:24:19;;;;;;;;;6.40;3.60;;;;;12.64;41.88;100449.38;5051198;28;45699;-49
2022/04/11 09:26:45;;;;;;;;;13.20;6.40;;;;;12.77;41.79;100448.34;5049678;28;45481;-50
2022/04/11 09:29:10;;;;;;;;;8.00;3.20;;;;;12.86;41.21;100431.25;5066688;28;45627;-49
2022/04/11 09:31:36;;;;;;;;;3.00;3.00;;;;;12.92;40.93;100414.88;5051084;28;45781;-50
2022/04/11 09:34:27;;;;;;;;;3.25;3.25;;;;;13.05;41.35;100414.66;5066473;28;45418;-51
2022/04/11 09:36:53;;;;;;;;;4.00;4.00;;;;;12.86;40.91;100365.16;5037384;28;45476;-48
2022/04/11 09:39:26;;;;;;;;;4.80;4.80;;;;;13.20;41.09;100419.72;5050215;28;45438;-50
2022/04/11 09:41:52;;;;;;;;;2.60;2.00;;;;;12.84;40.51;100341.66;5050915;28;45592;-48
2022/04/11 09:44:30;;;;;;;;;4.00;4.00;;;;;13.15;40.28;100386.50;5048895;28;45457;-47
2022/04/11 09:46:59;;;;;;;;;1.20;1.20;;;;;13.47;39.90;100416.53;5050745;28;45493;-48
2022/04/11 09:49:25;;;;;;;;;6.00;3.20;;;;;13.23;40.08;100352.25;5048431;28;45466;-48
2022/04/11 09:52:13;;;;;;;;;4.00;4.00;;;;;13.60;39.74;100403.59;5065389;28;45661;-46
2022/04/11 09:54:42;;;;;;;;;3.60;3.60;;;;;13.80;39.85;100411.47;5065980;28;45893;-49
2022/04/11 09:57:08;;;;;;;;;4.00;3.00;;;;;13.67;39.66;100371.19;5031700;28;45370;-51
2022/04/11 09:59:34;;;;;;;;;5.00;3.00;;;;;13.95;39.23;100409.06;5031999;28;46134;-52
2022/04/11 10:02:00;;;;;;;;;4.20;3.00;;;;;14.03;39.19;100413.34;5029219;28;47017;-53
2022/04/11 10:04:26;;;;;;;;;4.00;4.00;;;;;13.91;38.09;100384.94;5051136;28;45417;-50
2022/04/11 10:06:51;;;;;;;;;2.75;2.75;;;;;14.09;38.42;100404.09;5046561;28;45738;-50
2022/04/11 10:09:19;;;;;;;;;5.50;3.75;;;;;13.94;38.44;100363.22;5011302;28;45676;-47
2022/04/11 10:11:45;;;;;;;;;4.00;3.00;;;;;14.22;38.74;100399.38;5029460;28;46206;-49
2022/04/11 10:14:11;;;;;;;;;3.00;3.00;;;;;14.31;38.59;100406.19;5043547;28;45413;-47
2022/04/11 10:16:43;;;;;;;;;3.00;3.00;;;;;14.37;38.62;100402.44;5050328;28;45429;-46
2022/04/11 10:19:10;;;;;;;;;5.20;3.20;;;;;14.46;38.18;100394.59;5050679;28;45972;-50
2022/04/11 10:21:39;;;;;;;;;4.00;4.00;;;;;14.45;38.72;100378.28;5064922;28;45743;-49
2022/04/11 10:24:06;;;;;;;;;3.40;3.40;;;;;14.69;38.33;100406.66;5048544;28;45498;-49
2022/04/11 10:26:45;;;;;;;;;0.00;0.00;;;;;14.79;38.57;100391.38;5048979;28;45548;-50
2022/04/11 10:29:30;;;;;;;;;2.40;2.40;;;;;14.82;38.47;100399.16;5049903;28;45799;-48
2022/04/11 10:32:15;;;;;;;;;3.00;3.00;;;;;14.91;38.46;100387.44;5050338;28;46296;-48
2022/04/11 10:34:54;;;;;;;;;4.00;4.00;;;;;15.00;37.61;100378.75;5050696;28;45453;-50
2022/04/11 10:37:23;;;;;;;;;2.00;2.00;;;;;14.99;37.95;100354.97;5023275;28;45555;-49
2022/04/11 10:39:49;;;;;;;;;4.60;3.20;;;;;15.17;37.78;100371.28;5048347;28;45537;-50
2022/04/11 10:42:15;;;;;;;;;2.75;2.00;;;;;15.23;37.97;100369.44;5050328;28;45810;-51
2022/04/11 10:44:50;;;;;;;;;5.20;4.00;;;;;15.20;37.49;100358.06;5049267;28;45381;-52
2022/04/11 10:47:16;;;;;;;;;3.00;3.00;;;;;15.28;37.76;100361.25;5031996;28;45795;-52
2022/04/11 10:49:45;;;;;;;;;5.00;3.50;;;;;15.20;38.09;100333.19;5050765;28;45501;-53
2022/04/11 10:52:32;;;;;;;;;2.40;2.40;;;;;15.41;37.68;100368.34;5049332;28;45528;-50
2022/04/11 10:55:05;;;;;;;;;2.80;2.80;;;;;15.40;37.38;100349.22;5050297;28;45501;-52
2022/04/11 10:57:35;;;;;;;;;3.20;2.60;;;;;15.56;37.86;100353.91;5048523;28;45529;-49
2022/04/11 11:00:33;;;;;;;;;5.40;3.00;;;;;15.65;37.84;100359.00;5032281;28;45374;-50
2022/04/11 11:03:01;;;;;;;;;5.60;4.60;;;;;15.79;38.38;100342.88;5018033;28;45811;-50
2022/04/11 11:05:40;;;;;;;;;4.00;4.00;;;;;15.83;37.58;100338.47;5049413;28;45825;-53
2022/04/11 11:08:12;;;;;;;;;4.40;4.40;;;;;15.93;37.84;100333.09;5050320;28;45414;-54
2022/04/11 11:10:57;;;;;;;;;6.20;3.40;;;;;15.87;38.15;100306.44;5050909;28;45990;-55
2022/04/11 11:13:35;;;;;;;;;5.60;4.20;;;;;16.10;37.45;100318.34;5032324;28;47399;-52
2022/04/11 11:16:07;;;;;;;;;3.00;3.00;;;;;16.20;36.64;100332.31;5049602;28;45809;-55
2022/04/11 11:18:51;;;;;;;;;4.40;3.40;;;;;16.25;36.85;100335.13;5050219;28;45527;-50
2022/04/11 11:21:26;;;;;;;;;7.00;7.00;;;;;16.32;37.16;100336.88;5050638;28;45438;-54
2022/04/11 11:24:12;;;;;;;;;5.00;4.80;;;;;16.44;36.40;100350.56;5053456;28;45524;-53
2022/04/11 11:26:45;;;;;;;;;4.00;4.00;;;;;16.52;36.99;100342.63;5052681;28;45453;-55